sensor_id;sensor_type;location;lat;lon;timestamp;P1;durP1;ratioP1;P2;durP2;ratioP2
13347;SDS011;6743;49.934;9.138;2023-04-24T00:00:16;0.65;;;0.65;;
13347;SDS011;6743;49.934;9.138;2023-04-24T00:02:43;0.80;;;0.80;;
13347;SDS011;6743;49.934;9.138;2023-04-24T00:05:13;0.55;;;0.55;;
13347;SDS011;6743;49.934;9.138;2023-04-24T00:07:39;0.60;;;0.60;;
13347;SDS011;6743;49.934;9.138;2023-04-24T00:10:06;0.57;;;0.57;;
13347;SDS011;6743;49.934;9.138;2023-04-24T00:12:33;0.43;;;0.43;;
13347;SDS011;6743;49.934;9.138;2023-04-24T00:14:59;1.45;;;0.60;;
13347;SDS011;6743;49.934;9.138;2023-04-24T00:17:25;0.60;;;0.60;;
13347;SDS011;6743;49.934;9.138;2023-04-24T00:19:51;0.68;;;0.68;;
13347;SDS011;6743;49.934;9.138;2023-04-24T00:22:24;0.50;;;0.50;;
13347;SDS011;6743;49.934;9.138;2023-04-24T00:24:50;0.47;;;0.47;;
13347;SDS011;6743;49.934;9.138;2023-04-24T00:27:16;0.57;;;0.57;;
13347;SDS011;6743;49.934;9.138;2023-04-24T00:29:42;0.50;;;0.50;;
13347;SDS011;6743;49.934;9.138;2023-04-24T00:32:08;0.40;;;0.40;;
13347;SDS011;6743;49.934;9.138;2023-04-24T00:34:34;0.52;;;0.52;;
13347;SDS011;6743;49.934;9.138;2023-04-24T00:37:00;0.70;;;0.70;;
13347;SDS011;6743;49.934;9.138;2023-04-24T00:39:26;0.40;;;0.40;;
13347;SDS011;6743;49.934;9.138;2023-04-24T00:41:52;0.60;;;0.60;;
13347;SDS011;6743;49.934;9.138;2023-04-24T00:44:19;0.43;;;0.43;;
13347;SDS011;6743;49.934;9.138;2023-04-24T00:46:45;0.50;;;0.50;;
13347;SDS011;6743;49.934;9.138;2023-04-24T00:49:12;0.50;;;0.50;;
13347;SDS011;6743;49.934;9.138;2023-04-24T00:51:39;0.40;;;0.40;;
13347;SDS011;6743;49.934;9.138;2023-04-24T00:54:05;0.52;;;0.52;;
13347;SDS011;6743;49.934;9.138;2023-04-24T00:56:32;0.32;;;0.32;;
13347;SDS011;6743;49.934;9.138;2023-04-24T00:58:58;0.75;;;0.55;;
13347;SDS011;6743;49.934;9.138;2023-04-24T01:01:25;0.50;;;0.50;;
13347;SDS011;6743;49.934;9.138;2023-04-24T01:03:51;1.37;;;0.68;;
13347;SDS011;6743;49.934;9.138;2023-04-24T01:06:20;0.40;;;0.40;;
13347;SDS011;6743;49.934;9.138;2023-04-24T01:08:47;0.40;;;0.40;;
13347;SDS011;6743;49.934;9.138;2023-04-24T01:11:14;0.43;;;0.40;;
13347;SDS011;6743;49.934;9.138;2023-04-24T01:13:40;0.40;;;0.40;;
13347;SDS011;6743;49.934;9.138;2023-04-24T01:16:06;0.40;;;0.40;;
13347;SDS011;6743;49.934;9.138;2023-04-24T01:18:32;1.10;;;0.75;;
13347;SDS011;6743;49.934;9.138;2023-04-24T01:20:59;0.57;;;0.57;;
13347;SDS011;6743;49.934;9.138;2023-04-24T01:23:29;0.60;;;0.60;;
13347;SDS011;6743;49.934;9.138;2023-04-24T01:25:55;0.70;;;0.60;;
13347;SDS011;6743;49.934;9.138;2023-04-24T01:28:21;0.50;;;0.50;;
13347;SDS011;6743;49.934;9.138;2023-04-24T01:30:48;0.57;;;0.57;;
13347;SDS011;6743;49.934;9.138;2023-04-24T01:33:14;0.35;;;0.35;;
13347;SDS011;6743;49.934;9.138;2023-04-24T01:35:41;0.43;;;0.43;;
13347;SDS011;6743;49.934;9.138;2023-04-24T01:38:07;0.57;;;0.50;;
13347;SDS011;6743;49.934;9.138;2023-04-24T01:40:34;0.47;;;0.47;;
13347;SDS011;6743;49.934;9.138;2023-04-24T01:43:00;0.40;;;0.40;;
13347;SDS011;6743;49.934;9.138;2023-04-24T01:45:26;0.65;;;0.65;;
13347;SDS011;6743;49.934;9.138;2023-04-24T01:47:52;0.57;;;0.50;;
13347;SDS011;6743;49.934;9.138;2023-04-24T01:50:18;0.50;;;0.50;;
13347;SDS011;6743;49.934;9.138;2023-04-24T01:52:44;0.73;;;0.40;;
13347;SDS011;6743;49.934;9.138;2023-04-24T01:55:10;0.45;;;0.45;;
13347;SDS011;6743;49.934;9.138;2023-04-24T01:57:37;0.70;;;0.50;;
13347;SDS011;6743;49.934;9.138;2023-04-24T02:00:04;0.57;;;0.50;;
13347;SDS011;6743;49.934;9.138;2023-04-24T02:02:31;0.30;;;0.30;;
13347;SDS011;6743;49.934;9.138;2023-04-24T02:04:58;0.40;;;0.40;;
13347;SDS011;6743;49.934;9.138;2023-04-24T02:07:23;0.45;;;0.45;;
13347;SDS011;6743;49.934;9.138;2023-04-24T02:09:50;0.32;;;0.32;;
13347;SDS011;6743;49.934;9.138;2023-04-24T02:12:16;0.37;;;0.37;;
13347;SDS011;6743;49.934;9.138;2023-04-24T02:14:43;0.30;;;0.30;;
13347;SDS011;6743;49.934;9.138;2023-04-24T02:17:09;1.95;;;0.35;;
13347;SDS011;6743;49.934;9.138;2023-04-24T02:19:38;0.55;;;0.55;;
13347;SDS011;6743;49.934;9.138;2023-04-24T02:22:04;0.85;;;0.60;;
13347;SDS011;6743;49.934;9.138;2023-04-24T02:24:30;0.40;;;0.40;;
13347;SDS011;6743;49.934;9.138;2023-04-24T02:26:56;0.50;;;0.50;;
13347;SDS011;6743;49.934;9.138;2023-04-24T02:29:23;0.30;;;0.30;;
13347;SDS011;6743;49.934;9.138;2023-04-24T02:31:50;0.40;;;0.40;;
13347;SDS011;6743;49.934;9.138;2023-04-24T02:34:16;0.70;;;0.37;;
13347;SDS011;6743;49.934;9.138;2023-04-24T02:36:42;0.40;;;0.40;;
13347;SDS011;6743;49.934;9.138;2023-04-24T02:39:08;0.40;;;0.40;;
13347;SDS011;6743;49.934;9.138;2023-04-24T02:41:34;0.55;;;0.55;;
13347;SDS011;6743;49.934;9.138;2023-04-24T02:44:00;0.30;;;0.30;;
13347;SDS011;6743;49.934;9.138;2023-04-24T02:46:26;0.60;;;0.47;;
13347;SDS011;6743;49.934;9.138;2023-04-24T02:48:53;0.40;;;0.40;;
13347;SDS011;6743;49.934;9.138;2023-04-24T02:51:19;0.30;;;0.30;;
13347;SDS011;6743;49.934;9.138;2023-04-24T02:53:44;0.35;;;0.35;;
13347;SDS011;6743;49.934;9.138;2023-04-24T02:56:10;0.70;;;0.70;;
13347;SDS011;6743;49.934;9.138;2023-04-24T02:58:38;0.30;;;0.30;;
13347;SDS011;6743;49.934;9.138;2023-04-24T03:01:04;0.47;;;0.47;;
13347;SDS011;6743;49.934;9.138;2023-04-24T03:03:30;0.30;;;0.30;;
13347;SDS011;6743;49.934;9.138;2023-04-24T03:05:56;0.30;;;0.30;;
13347;SDS011;6743;49.934;9.138;2023-04-24T03:08:23;0.85;;;0.40;;
13347;SDS011;6743;49.934;9.138;2023-04-24T03:10:50;0.40;;;0.40;;
13347;SDS011;6743;49.934;9.138;2023-04-24T03:13:16;0.77;;;0.50;;
13347;SDS011;6743;49.934;9.138;2023-04-24T03:15:42;0.40;;;0.40;;
13347;SDS011;6743;49.934;9.138;2023-04-24T03:18:08;0.65;;;0.57;;
13347;SDS011;6743;49.934;9.138;2023-04-24T03:20:34;0.40;;;0.40;;
13347;SDS011;6743;49.934;9.138;2023-04-24T03:23:02;0.43;;;0.43;;
13347;SDS011;6743;49.934;9.138;2023-04-24T03:25:28;0.50;;;0.50;;
13347;SDS011;6743;49.934;9.138;2023-04-24T03:27:54;2.28;;;0.55;;
13347;SDS011;6743;49.934;9.138;2023-04-24T03:30:20;0.47;;;0.47;;
13347;SDS011;6743;49.934;9.138;2023-04-24T03:32:46;0.62;;;0.62;;
13347;SDS011;6743;49.934;9.138;2023-04-24T03:35:12;1.10;;;0.57;;
13347;SDS011;6743;49.934;9.138;2023-04-24T03:37:38;0.68;;;0.68;;
13347;SDS011;6743;49.934;9.138;2023-04-24T03:40:06;0.65;;;0.65;;
13347;SDS011;6743;49.934;9.138;2023-04-24T03:42:33;2.55;;;0.70;;
13347;SDS011;6743;49.934;9.138;2023-04-24T03:44:59;0.50;;;0.50;;
13347;SDS011;6743;49.934;9.138;2023-04-24T03:47:25;0.35;;;0.35;;
13347;SDS011;6743;49.934;9.138;2023-04-24T03:49:51;0.43;;;0.43;;
13347;SDS011;6743;49.934;9.138;2023-04-24T03:52:17;0.20;;;0.20;;
13347;SDS011;6743;49.934;9.138;2023-04-24T03:54:43;0.40;;;0.40;;
13347;SDS011;6743;49.934;9.138;2023-04-24T03:57:10;0.37;;;0.37;;
13347;SDS011;6743;49.934;9.138;2023-04-24T03:59:35;0.40;;;0.40;;
13347;SDS011;6743;49.934;9.138;2023-04-24T04:02:01;0.28;;;0.28;;
13347;SDS011;6743;49.934;9.138;2023-04-24T04:04:27;0.32;;;0.32;;
13347;SDS011;6743;49.934;9.138;2023-04-24T04:06:53;0.60;;;0.60;;
13347;SDS011;6743;49.934;9.138;2023-04-24T04:09:19;0.60;;;0.60;;
13347;SDS011;6743;49.934;9.138;2023-04-24T04:11:45;0.50;;;0.50;;
13347;SDS011;6743;49.934;9.138;2023-04-24T04:14:12;0.30;;;0.30;;
13347;SDS011;6743;49.934;9.138;2023-04-24T04:16:38;0.40;;;0.40;;
13347;SDS011;6743;49.934;9.138;2023-04-24T04:19:04;0.45;;;0.45;;
13347;SDS011;6743;49.934;9.138;2023-04-24T04:21:30;0.50;;;0.50;;
13347;SDS011;6743;49.934;9.138;2023-04-24T04:23:57;0.62;;;0.62;;
13347;SDS011;6743;49.934;9.138;2023-04-24T04:26:23;0.50;;;0.50;;
13347;SDS011;6743;49.934;9.138;2023-04-24T04:28:50;0.50;;;0.50;;
13347;SDS011;6743;49.934;9.138;2023-04-24T04:31:17;1.30;;;0.60;;
13347;SDS011;6743;49.934;9.138;2023-04-24T04:33:43;0.43;;;0.43;;
13347;SDS011;6743;49.934;9.138;2023-04-24T04:36:09;1.27;;;0.70;;
13347;SDS011;6743;49.934;9.138;2023-04-24T04:38:35;0.30;;;0.30;;
13347;SDS011;6743;49.934;9.138;2023-04-24T04:41:02;0.62;;;0.62;;
13347;SDS011;6743;49.934;9.138;2023-04-24T04:43:29;0.60;;;0.60;;
13347;SDS011;6743;49.934;9.138;2023-04-24T04:45:55;0.37;;;0.37;;
13347;SDS011;6743;49.934;9.138;2023-04-24T04:48:23;0.30;;;0.30;;
13347;SDS011;6743;49.934;9.138;2023-04-24T04:50:49;0.45;;;0.45;;
13347;SDS011;6743;49.934;9.138;2023-04-24T04:53:16;0.50;;;0.50;;
13347;SDS011;6743;49.934;9.138;2023-04-24T04:55:42;0.57;;;0.57;;
13347;SDS011;6743;49.934;9.138;2023-04-24T04:58:08;0.65;;;0.65;;
13347;SDS011;6743;49.934;9.138;2023-04-24T05:00:34;0.70;;;0.70;;
13347;SDS011;6743;49.934;9.138;2023-04-24T05:03:02;3.20;;;0.50;;
13347;SDS011;6743;49.934;9.138;2023-04-24T05:05:29;0.47;;;0.45;;
13347;SDS011;6743;49.934;9.138;2023-04-24T05:07:55;0.50;;;0.50;;
13347;SDS011;6743;49.934;9.138;2023-04-24T05:10:21;0.70;;;0.70;;
13347;SDS011;6743;49.934;9.138;2023-04-24T05:12:48;0.73;;;0.73;;
13347;SDS011;6743;49.934;9.138;2023-04-24T05:15:14;0.60;;;0.60;;
13347;SDS011;6743;49.934;9.138;2023-04-24T05:17:40;0.40;;;0.40;;
13347;SDS011;6743;49.934;9.138;2023-04-24T05:20:07;0.82;;;0.60;;
13347;SDS011;6743;49.934;9.138;2023-04-24T05:22:34;0.77;;;0.77;;
13347;SDS011;6743;49.934;9.138;2023-04-24T05:25:00;0.50;;;0.50;;
13347;SDS011;6743;49.934;9.138;2023-04-24T05:27:27;0.80;;;0.80;;
13347;SDS011;6743;49.934;9.138;2023-04-24T05:29:53;0.75;;;0.75;;
13347;SDS011;6743;49.934;9.138;2023-04-24T05:32:20;1.87;;;1.00;;
13347;SDS011;6743;49.934;9.138;2023-04-24T05:34:46;0.90;;;0.90;;
13347;SDS011;6743;49.934;9.138;2023-04-24T05:37:12;0.73;;;0.73;;
13347;SDS011;6743;49.934;9.138;2023-04-24T05:39:38;0.60;;;0.60;;
13347;SDS011;6743;49.934;9.138;2023-04-24T05:42:06;0.90;;;0.90;;
13347;SDS011;6743;49.934;9.138;2023-04-24T05:44:32;0.60;;;0.60;;
13347;SDS011;6743;49.934;9.138;2023-04-24T05:46:58;0.90;;;0.90;;
13347;SDS011;6743;49.934;9.138;2023-04-24T05:49:24;1.30;;;0.88;;
13347;SDS011;6743;49.934;9.138;2023-04-24T05:51:50;0.90;;;0.90;;
13347;SDS011;6743;49.934;9.138;2023-04-24T05:54:16;1.05;;;0.98;;
13347;SDS011;6743;49.934;9.138;2023-04-24T05:56:42;0.80;;;0.80;;
13347;SDS011;6743;49.934;9.138;2023-04-24T05:59:08;0.80;;;0.80;;
13347;SDS011;6743;49.934;9.138;2023-04-24T06:01:35;0.95;;;0.95;;
13347;SDS011;6743;49.934;9.138;2023-04-24T06:04:02;1.00;;;1.00;;
13347;SDS011;6743;49.934;9.138;2023-04-24T06:06:28;0.65;;;0.65;;
13347;SDS011;6743;49.934;9.138;2023-04-24T06:08:54;1.10;;;1.10;;
13347;SDS011;6743;49.934;9.138;2023-04-24T06:11:21;0.73;;;0.73;;
13347;SDS011;6743;49.934;9.138;2023-04-24T06:13:48;2.58;;;0.90;;
13347;SDS011;6743;49.934;9.138;2023-04-24T06:16:14;0.90;;;0.90;;
13347;SDS011;6743;49.934;9.138;2023-04-24T06:18:40;1.25;;;1.15;;
13347;SDS011;6743;49.934;9.138;2023-04-24T06:21:06;1.08;;;0.98;;
13347;SDS011;6743;49.934;9.138;2023-04-24T06:23:32;1.00;;;0.90;;
13347;SDS011;6743;49.934;9.138;2023-04-24T06:25:58;1.00;;;1.00;;
13347;SDS011;6743;49.934;9.138;2023-04-24T06:28:24;1.10;;;1.10;;
13347;SDS011;6743;49.934;9.138;2023-04-24T06:30:52;1.00;;;1.00;;
13347;SDS011;6743;49.934;9.138;2023-04-24T06:33:18;1.05;;;1.00;;
13347;SDS011;6743;49.934;9.138;2023-04-24T06:35:44;1.12;;;1.00;;
13347;SDS011;6743;49.934;9.138;2023-04-24T06:38:10;1.05;;;1.00;;
13347;SDS011;6743;49.934;9.138;2023-04-24T06:40:36;1.33;;;1.25;;
13347;SDS011;6743;49.934;9.138;2023-04-24T06:43:02;2.10;;;1.10;;
13347;SDS011;6743;49.934;9.138;2023-04-24T06:45:28;1.20;;;1.10;;
13347;SDS011;6743;49.934;9.138;2023-04-24T06:47:55;1.37;;;1.27;;
13347;SDS011;6743;49.934;9.138;2023-04-24T06:50:21;1.12;;;1.00;;
13347;SDS011;6743;49.934;9.138;2023-04-24T06:52:47;1.10;;;1.00;;
13347;SDS011;6743;49.934;9.138;2023-04-24T06:55:13;0.98;;;0.98;;
13347;SDS011;6743;49.934;9.138;2023-04-24T06:57:41;1.62;;;1.52;;
13347;SDS011;6743;49.934;9.138;2023-04-24T07:00:08;1.58;;;1.48;;
13347;SDS011;6743;49.934;9.138;2023-04-24T07:02:35;1.55;;;1.40;;
13347;SDS011;6743;49.934;9.138;2023-04-24T07:05:01;1.83;;;1.20;;
13347;SDS011;6743;49.934;9.138;2023-04-24T07:07:27;1.35;;;1.25;;
13347;SDS011;6743;49.934;9.138;2023-04-24T07:09:54;1.20;;;1.10;;
13347;SDS011;6743;49.934;9.138;2023-04-24T07:12:21;1.20;;;1.12;;
13347;SDS011;6743;49.934;9.138;2023-04-24T07:14:47;1.30;;;1.20;;
13347;SDS011;6743;49.934;9.138;2023-04-24T07:17:13;1.50;;;1.50;;
13347;SDS011;6743;49.934;9.138;2023-04-24T07:19:39;1.52;;;1.42;;
13347;SDS011;6743;49.934;9.138;2023-04-24T07:22:06;1.62;;;1.52;;
13347;SDS011;6743;49.934;9.138;2023-04-24T07:24:32;1.52;;;1.42;;
13347;SDS011;6743;49.934;9.138;2023-04-24T07:26:58;1.17;;;1.15;;
13347;SDS011;6743;49.934;9.138;2023-04-24T07:29:26;1.70;;;1.60;;
13347;SDS011;6743;49.934;9.138;2023-04-24T07:31:52;1.80;;;1.70;;
13347;SDS011;6743;49.934;9.138;2023-04-24T07:34:19;1.65;;;1.55;;
13347;SDS011;6743;49.934;9.138;2023-04-24T07:36:45;2.05;;;1.85;;
13347;SDS011;6743;49.934;9.138;2023-04-24T07:39:12;1.73;;;1.62;;
13347;SDS011;6743;49.934;9.138;2023-04-24T07:41:38;1.65;;;1.55;;
13347;SDS011;6743;49.934;9.138;2023-04-24T07:44:04;2.03;;;1.83;;
13347;SDS011;6743;49.934;9.138;2023-04-24T07:46:30;1.87;;;1.70;;
13347;SDS011;6743;49.934;9.138;2023-04-24T07:48:57;1.40;;;1.30;;
13347;SDS011;6743;49.934;9.138;2023-04-24T07:51:24;1.23;;;1.12;;
13347;SDS011;6743;49.934;9.138;2023-04-24T07:53:51;2.17;;;1.25;;
13347;SDS011;6743;49.934;9.138;2023-04-24T07:56:17;2.58;;;1.67;;
13347;SDS011;6743;49.934;9.138;2023-04-24T07:58:44;1.50;;;1.40;;
13347;SDS011;6743;49.934;9.138;2023-04-24T08:01:10;1.58;;;1.48;;
13347;SDS011;6743;49.934;9.138;2023-04-24T08:03:36;1.37;;;1.30;;
13347;SDS011;6743;49.934;9.138;2023-04-24T08:06:02;1.62;;;1.27;;
13347;SDS011;6743;49.934;9.138;2023-04-24T08:08:28;1.12;;;1.12;;
13347;SDS011;6743;49.934;9.138;2023-04-24T08:10:54;1.50;;;1.40;;
13347;SDS011;6743;49.934;9.138;2023-04-24T08:13:21;1.48;;;1.37;;
13347;SDS011;6743;49.934;9.138;2023-04-24T08:15:47;1.87;;;1.10;;
13347;SDS011;6743;49.934;9.138;2023-04-24T08:18:13;2.87;;;1.35;;
13347;SDS011;6743;49.934;9.138;2023-04-24T08:20:40;1.20;;;1.20;;
13347;SDS011;6743;49.934;9.138;2023-04-24T08:23:06;1.30;;;1.20;;
13347;SDS011;6743;49.934;9.138;2023-04-24T08:25:32;1.90;;;1.58;;
13347;SDS011;6743;49.934;9.138;2023-04-24T08:28:00;1.23;;;1.12;;
13347;SDS011;6743;49.934;9.138;2023-04-24T08:30:29;1.27;;;1.17;;
13347;SDS011;6743;49.934;9.138;2023-04-24T08:32:55;1.12;;;1.10;;
13347;SDS011;6743;49.934;9.138;2023-04-24T08:35:21;0.93;;;0.93;;
13347;SDS011;6743;49.934;9.138;2023-04-24T08:37:48;1.00;;;1.00;;
13347;SDS011;6743;49.934;9.138;2023-04-24T08:40:14;1.35;;;1.25;;
13347;SDS011;6743;49.934;9.138;2023-04-24T08:42:41;1.10;;;1.02;;
13347;SDS011;6743;49.934;9.138;2023-04-24T08:45:09;1.12;;;1.12;;
13347;SDS011;6743;49.934;9.138;2023-04-24T08:47:36;1.15;;;1.15;;
13347;SDS011;6743;49.934;9.138;2023-04-24T08:50:04;1.27;;;1.17;;
13347;SDS011;6743;49.934;9.138;2023-04-24T08:52:31;1.00;;;1.00;;
13347;SDS011;6743;49.934;9.138;2023-04-24T08:54:58;0.90;;;0.90;;
13347;SDS011;6743;49.934;9.138;2023-04-24T08:57:25;1.25;;;1.17;;
13347;SDS011;6743;49.934;9.138;2023-04-24T08:59:52;1.02;;;1.02;;
13347;SDS011;6743;49.934;9.138;2023-04-24T09:02:18;0.98;;;0.98;;
13347;SDS011;6743;49.934;9.138;2023-04-24T09:04:45;1.10;;;1.10;;
13347;SDS011;6743;49.934;9.138;2023-04-24T09:07:13;1.12;;;0.93;;
13347;SDS011;6743;49.934;9.138;2023-04-24T09:09:41;1.40;;;1.17;;
13347;SDS011;6743;49.934;9.138;2023-04-24T09:12:07;1.00;;;1.00;;
13347;SDS011;6743;49.934;9.138;2023-04-24T09:14:35;1.55;;;0.85;;
13347;SDS011;6743;49.934;9.138;2023-04-24T09:17:02;1.00;;;1.00;;
13347;SDS011;6743;49.934;9.138;2023-04-24T09:19:28;0.82;;;0.82;;
13347;SDS011;6743;49.934;9.138;2023-04-24T09:21:55;1.05;;;0.70;;
13347;SDS011;6743;49.934;9.138;2023-04-24T09:24:21;1.12;;;1.12;;
13347;SDS011;6743;49.934;9.138;2023-04-24T09:26:48;0.82;;;0.80;;
13347;SDS011;6743;49.934;9.138;2023-04-24T09:29:15;1.00;;;1.00;;
13347;SDS011;6743;49.934;9.138;2023-04-24T09:31:41;1.35;;;1.17;;
13347;SDS011;6743;49.934;9.138;2023-04-24T09:34:08;1.17;;;1.10;;
13347;SDS011;6743;49.934;9.138;2023-04-24T09:36:34;0.82;;;0.82;;
13347;SDS011;6743;49.934;9.138;2023-04-24T09:39:04;1.65;;;1.50;;
13347;SDS011;6743;49.934;9.138;2023-04-24T09:41:32;0.90;;;0.90;;
13347;SDS011;6743;49.934;9.138;2023-04-24T09:44:09;1.30;;;1.20;;
13347;SDS011;6743;49.934;9.138;2023-04-24T09:46:37;1.65;;;1.02;;
13347;SDS011;6743;49.934;9.138;2023-04-24T09:49:07;1.25;;;1.15;;
13347;SDS011;6743;49.934;9.138;2023-04-24T09:51:35;1.00;;;1.00;;
13347;SDS011;6743;49.934;9.138;2023-04-24T09:54:02;1.30;;;1.20;;
13347;SDS011;6743;49.934;9.138;2023-04-24T09:56:31;1.20;;;1.20;;
13347;SDS011;6743;49.934;9.138;2023-04-24T09:59:03;1.27;;;1.27;;
13347;SDS011;6743;49.934;9.138;2023-04-24T10:01:30;1.20;;;1.20;;
13347;SDS011;6743;49.934;9.138;2023-04-24T10:03:57;1.17;;;1.08;;
13347;SDS011;6743;49.934;9.138;2023-04-24T10:06:23;1.15;;;1.15;;
13347;SDS011;6743;49.934;9.138;2023-04-24T10:08:56;1.50;;;1.40;;
13347;SDS011;6743;49.934;9.138;2023-04-24T10:11:24;0.95;;;0.95;;
13347;SDS011;6743;49.934;9.138;2023-04-24T10:13:51;1.25;;;1.15;;
13347;SDS011;6743;49.934;9.138;2023-04-24T10:16:17;1.58;;;1.27;;
13347;SDS011;6743;49.934;9.138;2023-04-24T10:18:45;1.67;;;1.58;;
13347;SDS011;6743;49.934;9.138;2023-04-24T10:21:12;1.12;;;1.10;;
13347;SDS011;6743;49.934;9.138;2023-04-24T10:23:38;1.17;;;1.08;;
13347;SDS011;6743;49.934;9.138;2023-04-24T10:26:05;1.10;;;1.10;;
13347;SDS011;6743;49.934;9.138;2023-04-24T10:28:32;0.80;;;0.80;;
13347;SDS011;6743;49.934;9.138;2023-04-24T10:31:00;1.40;;;1.30;;
13347;SDS011;6743;49.934;9.138;2023-04-24T10:33:26;1.67;;;1.58;;
13347;SDS011;6743;49.934;9.138;2023-04-24T10:35:53;1.50;;;1.40;;
13347;SDS011;6743;49.934;9.138;2023-04-24T10:38:21;1.55;;;1.45;;
13347;SDS011;6743;49.934;9.138;2023-04-24T10:40:50;1.20;;;1.10;;
13347;SDS011;6743;49.934;9.138;2023-04-24T10:43:16;1.52;;;1.42;;
13347;SDS011;6743;49.934;9.138;2023-04-24T10:45:59;1.50;;;1.30;;
13347;SDS011;6743;49.934;9.138;2023-04-24T10:48:26;1.10;;;1.10;;
13347;SDS011;6743;49.934;9.138;2023-04-24T10:50:53;0.82;;;0.82;;
13347;SDS011;6743;49.934;9.138;2023-04-24T10:53:19;1.35;;;1.25;;
13347;SDS011;6743;49.934;9.138;2023-04-24T10:55:48;1.40;;;1.30;;
13347;SDS011;6743;49.934;9.138;2023-04-24T10:58:15;1.17;;;1.12;;
13347;SDS011;6743;49.934;9.138;2023-04-24T11:00:42;1.25;;;1.25;;
13347;SDS011;6743;49.934;9.138;2023-04-24T11:03:23;0.90;;;0.90;;
13347;SDS011;6743;49.934;9.138;2023-04-24T11:05:55;1.17;;;1.08;;
13347;SDS011;6743;49.934;9.138;2023-04-24T11:08:24;0.93;;;0.93;;
13347;SDS011;6743;49.934;9.138;2023-04-24T11:10:58;1.10;;;1.10;;
13347;SDS011;6743;49.934;9.138;2023-04-24T11:13:26;0.95;;;0.95;;
13347;SDS011;6743;49.934;9.138;2023-04-24T11:18:42;0.98;;;0.98;;
13347;SDS011;6743;49.934;9.138;2023-04-24T11:21:11;1.02;;;1.02;;
13347;SDS011;6743;49.934;9.138;2023-04-24T11:23:37;1.70;;;0.98;;
13347;SDS011;6743;49.934;9.138;2023-04-24T11:26:09;1.02;;;1.02;;
13347;SDS011;6743;49.934;9.138;2023-04-24T11:28:37;0.95;;;0.95;;
13347;SDS011;6743;49.934;9.138;2023-04-24T11:34:05;1.20;;;1.10;;
13347;SDS011;6743;49.934;9.138;2023-04-24T11:36:33;0.95;;;0.95;;
13347;SDS011;6743;49.934;9.138;2023-04-24T11:39:00;1.10;;;1.10;;
13347;SDS011;6743;49.934;9.138;2023-04-24T11:41:26;2.58;;;1.25;;
13347;SDS011;6743;49.934;9.138;2023-04-24T11:43:53;1.10;;;1.10;;
13347;SDS011;6743;49.934;9.138;2023-04-24T11:46:20;1.02;;;1.02;;
13347;SDS011;6743;49.934;9.138;2023-04-24T11:48:47;1.05;;;0.95;;
13347;SDS011;6743;49.934;9.138;2023-04-24T11:51:14;1.15;;;1.15;;
13347;SDS011;6743;49.934;9.138;2023-04-24T11:53:40;1.37;;;1.27;;
13347;SDS011;6743;49.934;9.138;2023-04-24T11:56:06;1.45;;;1.35;;
13347;SDS011;6743;49.934;9.138;2023-04-24T11:58:34;1.20;;;1.10;;
13347;SDS011;6743;49.934;9.138;2023-04-24T12:01:01;1.77;;;1.42;;
13347;SDS011;6743;49.934;9.138;2023-04-24T12:03:27;1.27;;;1.27;;
13347;SDS011;6743;49.934;9.138;2023-04-24T12:05:53;2.22;;;1.30;;
13347;SDS011;6743;49.934;9.138;2023-04-24T12:08:31;0.75;;;0.75;;
13347;SDS011;6743;49.934;9.138;2023-04-24T12:10:57;1.55;;;1.45;;
13347;SDS011;6743;49.934;9.138;2023-04-24T12:13:25;1.48;;;1.40;;
13347;SDS011;6743;49.934;9.138;2023-04-24T12:15:51;2.53;;;1.30;;
13347;SDS011;6743;49.934;9.138;2023-04-24T12:18:17;1.23;;;1.12;;
13347;SDS011;6743;49.934;9.138;2023-04-24T12:20:43;1.35;;;1.20;;
13347;SDS011;6743;49.934;9.138;2023-04-24T12:23:09;1.12;;;1.12;;
13347;SDS011;6743;49.934;9.138;2023-04-24T12:25:36;1.50;;;1.40;;
13347;SDS011;6743;49.934;9.138;2023-04-24T12:28:10;1.10;;;1.02;;
13347;SDS011;6743;49.934;9.138;2023-04-24T12:30:39;1.60;;;1.50;;
13347;SDS011;6743;49.934;9.138;2023-04-24T12:33:09;2.58;;;1.65;;
13347;SDS011;6743;49.934;9.138;2023-04-24T12:35:35;1.30;;;1.20;;
13347;SDS011;6743;49.934;9.138;2023-04-24T12:38:05;1.40;;;1.33;;
13347;SDS011;6743;49.934;9.138;2023-04-24T12:40:32;1.65;;;1.55;;
13347;SDS011;6743;49.934;9.138;2023-04-24T12:42:59;0.98;;;0.98;;
13347;SDS011;6743;49.934;9.138;2023-04-24T12:45:25;2.67;;;1.52;;
13347;SDS011;6743;49.934;9.138;2023-04-24T12:47:53;1.30;;;1.20;;
13347;SDS011;6743;49.934;9.138;2023-04-24T12:50:19;2.65;;;1.48;;
13347;SDS011;6743;49.934;9.138;2023-04-24T12:52:45;1.65;;;1.35;;
13347;SDS011;6743;49.934;9.138;2023-04-24T12:55:11;1.62;;;1.52;;
13347;SDS011;6743;49.934;9.138;2023-04-24T12:57:38;1.67;;;1.55;;
13347;SDS011;6743;49.934;9.138;2023-04-24T13:00:06;1.83;;;1.73;;
13347;SDS011;6743;49.934;9.138;2023-04-24T13:02:34;1.73;;;1.62;;
13347;SDS011;6743;49.934;9.138;2023-04-24T13:05:00;1.50;;;1.40;;
13347;SDS011;6743;49.934;9.138;2023-04-24T13:07:27;1.02;;;1.00;;
13347;SDS011;6743;49.934;9.138;2023-04-24T13:09:54;1.15;;;1.12;;
13347;SDS011;6743;49.934;9.138;2023-04-24T13:12:21;1.15;;;0.95;;
13347;SDS011;6743;49.934;9.138;2023-04-24T13:14:48;1.60;;;1.50;;
13347;SDS011;6743;49.934;9.138;2023-04-24T13:17:15;1.52;;;1.42;;
13347;SDS011;6743;49.934;9.138;2023-04-24T13:19:42;1.37;;;1.33;;
13347;SDS011;6743;49.934;9.138;2023-04-24T13:22:09;0.85;;;0.85;;
13347;SDS011;6743;49.934;9.138;2023-04-24T13:24:36;1.52;;;1.02;;
13347;SDS011;6743;49.934;9.138;2023-04-24T13:27:03;0.90;;;0.90;;
13347;SDS011;6743;49.934;9.138;2023-04-24T13:29:29;1.02;;;1.02;;
13347;SDS011;6743;49.934;9.138;2023-04-24T13:31:55;1.55;;;1.30;;
13347;SDS011;6743;49.934;9.138;2023-04-24T13:34:22;1.15;;;1.10;;
13347;SDS011;6743;49.934;9.138;2023-04-24T13:36:49;0.85;;;0.85;;
13347;SDS011;6743;49.934;9.138;2023-04-24T13:39:16;1.37;;;1.27;;
13347;SDS011;6743;49.934;9.138;2023-04-24T13:41:42;1.30;;;1.10;;
13347;SDS011;6743;49.934;9.138;2023-04-24T13:44:08;1.07;;;1.07;;
13347;SDS011;6743;49.934;9.138;2023-04-24T13:46:34;1.63;;;1.17;;
13347;SDS011;6743;49.934;9.138;2023-04-24T13:49:01;2.17;;;1.30;;
13347;SDS011;6743;49.934;9.138;2023-04-24T13:51:29;1.00;;;1.00;;
13347;SDS011;6743;49.934;9.138;2023-04-24T13:53:56;1.13;;;1.13;;
13347;SDS011;6743;49.934;9.138;2023-04-24T13:56:22;1.23;;;1.13;;
13347;SDS011;6743;49.934;9.138;2023-04-24T13:58:48;3.07;;;1.70;;
13347;SDS011;6743;49.934;9.138;2023-04-24T14:01:14;1.43;;;1.37;;
13347;SDS011;6743;49.934;9.138;2023-04-24T14:03:40;2.15;;;1.55;;
13347;SDS011;6743;49.934;9.138;2023-04-24T14:06:07;1.50;;;1.35;;
13347;SDS011;6743;49.934;9.138;2023-04-24T14:08:33;1.80;;;1.70;;
13347;SDS011;6743;49.934;9.138;2023-04-24T14:11:00;1.58;;;1.45;;
13347;SDS011;6743;49.934;9.138;2023-04-24T14:13:26;1.80;;;1.70;;
13347;SDS011;6743;49.934;9.138;2023-04-24T14:15:52;1.85;;;1.60;;
13347;SDS011;6743;49.934;9.138;2023-04-24T14:18:18;1.55;;;1.45;;
13347;SDS011;6743;49.934;9.138;2023-04-24T14:20:44;1.73;;;1.60;;
13347;SDS011;6743;49.934;9.138;2023-04-24T14:23:10;3.50;;;1.73;;
13347;SDS011;6743;49.934;9.138;2023-04-24T14:25:37;1.85;;;1.48;;
13347;SDS011;6743;49.934;9.138;2023-04-24T14:28:03;3.87;;;1.60;;
13347;SDS011;6743;49.934;9.138;2023-04-24T14:30:29;1.50;;;1.40;;
13347;SDS011;6743;49.934;9.138;2023-04-24T14:32:55;1.80;;;1.70;;
13347;SDS011;6743;49.934;9.138;2023-04-24T14:35:21;2.75;;;1.60;;
13347;SDS011;6743;49.934;9.138;2023-04-24T14:37:47;1.67;;;1.52;;
13347;SDS011;6743;49.934;9.138;2023-04-24T14:40:14;1.55;;;1.45;;
13347;SDS011;6743;49.934;9.138;2023-04-24T14:42:40;1.50;;;1.40;;
13347;SDS011;6743;49.934;9.138;2023-04-24T14:45:07;1.25;;;1.15;;
13347;SDS011;6743;49.934;9.138;2023-04-24T14:47:33;1.40;;;1.30;;
13347;SDS011;6743;49.934;9.138;2023-04-24T14:49:59;1.33;;;1.23;;
13347;SDS011;6743;49.934;9.138;2023-04-24T14:52:25;1.98;;;1.45;;
13347;SDS011;6743;49.934;9.138;2023-04-24T14:54:51;1.70;;;1.60;;
13347;SDS011;6743;49.934;9.138;2023-04-24T14:57:17;2.20;;;1.80;;
13347;SDS011;6743;49.934;9.138;2023-04-24T14:59:44;1.55;;;1.42;;
13347;SDS011;6743;49.934;9.138;2023-04-24T15:02:10;1.60;;;1.50;;